createdAt,value
2023-04-26T00:02:00.703Z,5.89
2023-04-26T00:04:29.531Z,5.89
2023-04-26T00:06:56.989Z,5.93
2023-04-26T00:09:23.855Z,5.95
2023-04-26T00:11:50.686Z,5.97
2023-04-26T00:14:17.661Z,5.80
2023-04-26T00:16:44.569Z,5.88
2023-04-26T00:19:12.895Z,5.92
2023-04-26T00:21:40.496Z,5.93
2023-04-26T00:24:08.062Z,5.84
2023-04-26T00:26:35.217Z,5.90
2023-04-26T00:29:03.184Z,5.81
2023-04-26T00:31:30.074Z,5.87
2023-04-26T00:33:57.002Z,5.79
2023-04-26T00:36:23.969Z,5.78
2023-04-26T00:38:51.119Z,5.70
2023-04-26T00:41:18.163Z,5.62
2023-04-26T00:43:45.425Z,5.56
2023-04-26T00:46:12.827Z,5.59
2023-04-26T00:48:39.828Z,5.68
2023-04-26T00:51:07.076Z,5.62
2023-04-26T00:53:35.678Z,5.53
2023-04-26T00:56:03.214Z,5.58
2023-04-26T00:58:30.335Z,5.61
2023-04-26T01:00:57.354Z,5.69
2023-04-26T01:03:25.111Z,5.73
2023-04-26T01:05:52.984Z,5.75
2023-04-26T01:08:21.309Z,5.68
2023-04-26T01:10:49.120Z,5.78
2023-04-26T01:13:17.109Z,5.65
2023-04-26T01:15:47.792Z,5.61
2023-04-26T01:18:15.273Z,5.55
2023-04-26T01:20:43.536Z,5.57
2023-04-26T01:23:11.836Z,5.62
2023-04-26T01:25:39.202Z,5.58
2023-04-26T01:28:06.369Z,5.66
2023-04-26T01:30:33.304Z,5.70
2023-04-26T01:33:00.277Z,5.68
2023-04-26T01:35:27.365Z,5.76
2023-04-26T01:37:54.235Z,5.75
2023-04-26T01:40:21.455Z,5.78
2023-04-26T01:42:48.390Z,5.84
2023-04-26T01:45:15.227Z,5.88
2023-04-26T01:47:42.074Z,5.81
2023-04-26T01:50:10.433Z,5.86
2023-04-26T01:52:37.424Z,5.89
2023-04-26T01:55:04.767Z,5.89
2023-04-26T01:57:31.582Z,5.84
2023-04-26T01:59:59.569Z,5.89
2023-04-26T02:02:26.652Z,5.93
2023-04-26T02:04:53.545Z,5.93
2023-04-26T02:07:20.907Z,5.92
2023-04-26T02:09:48.013Z,5.89
2023-04-26T02:12:14.925Z,5.85
2023-04-26T02:14:41.765Z,5.87
2023-04-26T02:17:09.188Z,5.90
2023-04-26T02:19:36.150Z,5.87
2023-04-26T02:22:06.502Z,5.89
2023-04-26T02:24:33.720Z,5.85
2023-04-26T02:27:04.022Z,5.84
2023-04-26T02:29:43.590Z,5.82
2023-04-26T02:32:11.796Z,5.87
2023-04-26T02:34:38.666Z,5.77
2023-04-26T02:37:05.506Z,5.86
2023-04-26T02:39:32.478Z,5.76
2023-04-26T02:41:59.887Z,5.85
2023-04-26T02:44:31.078Z,5.81
2023-04-26T02:46:58.575Z,5.84
2023-04-26T02:49:25.551Z,5.82
2023-04-26T02:51:52.431Z,5.83
2023-04-26T02:54:19.258Z,5.88
2023-04-26T02:56:46.204Z,5.91
2023-04-26T02:59:13.858Z,5.92
2023-04-26T03:01:40.765Z,5.86
2023-04-26T03:04:07.943Z,5.90
2023-04-26T03:06:35.414Z,5.90
2023-04-26T03:09:02.316Z,5.92
2023-04-26T03:11:29.194Z,5.95
2023-04-26T03:13:56.028Z,5.91
2023-04-26T03:16:24.219Z,5.95
2023-04-26T03:18:51.457Z,5.84
2023-04-26T03:21:18.466Z,5.93
2023-04-26T03:23:45.312Z,5.86
2023-04-26T03:26:12.462Z,5.79
2023-04-26T03:28:39.363Z,5.70
2023-04-26T03:31:06.312Z,5.64
2023-04-26T03:33:33.243Z,5.61
2023-04-26T03:36:00.116Z,5.71
2023-04-26T03:38:26.987Z,5.77
2023-04-26T03:40:53.860Z,5.72
2023-04-26T03:43:20.714Z,5.73
2023-04-26T03:45:49.669Z,5.68
2023-04-26T03:48:17.421Z,5.73
2023-04-26T03:50:46.112Z,5.78
2023-04-26T03:53:13.375Z,5.79
2023-04-26T03:55:40.238Z,5.82
2023-04-26T03:58:08.379Z,5.76
2023-04-26T04:00:38.249Z,5.73
2023-04-26T04:03:07.038Z,5.82
2023-04-26T04:05:34.535Z,5.81
2023-04-26T04:08:02.145Z,5.82
2023-04-26T04:10:29.283Z,5.78
2023-04-26T04:12:56.181Z,5.80
2023-04-26T04:15:23.902Z,5.83
2023-04-26T04:17:51.303Z,5.83
2023-04-26T04:20:18.362Z,5.84
2023-04-26T04:22:45.252Z,5.75
2023-04-26T04:25:12.084Z,5.81
2023-04-26T04:27:39.011Z,5.83
2023-04-26T04:30:07.959Z,5.80
2023-04-26T04:32:36.269Z,5.73
2023-04-26T04:35:03.564Z,5.62
2023-04-26T04:37:33.220Z,5.72
2023-04-26T04:40:00.974Z,5.69
2023-04-26T04:42:28.432Z,5.58
2023-04-26T04:44:56.262Z,5.52
2023-04-26T04:47:23.249Z,5.52
2023-04-26T04:49:50.113Z,5.52
2023-04-26T04:52:18.799Z,5.54
2023-04-26T04:54:45.918Z,5.53
2023-04-26T04:57:14.030Z,5.54
2023-04-26T04:59:40.919Z,5.56
2023-04-26T05:02:07.866Z,5.54
2023-04-26T05:04:34.961Z,5.58
2023-04-26T05:07:02.297Z,5.61
2023-04-26T05:09:29.105Z,5.64
2023-04-26T05:11:55.974Z,5.71
2023-04-26T05:14:22.853Z,5.65
2023-04-26T05:16:49.756Z,5.65
2023-04-26T05:19:16.956Z,5.68
2023-04-26T05:21:43.804Z,5.73
2023-04-26T05:24:10.632Z,5.72
2023-04-26T05:26:37.506Z,5.80
2023-04-26T05:29:04.367Z,5.75
2023-04-26T05:31:31.773Z,5.70
2023-04-26T05:33:58.664Z,5.67
2023-04-26T05:36:26.437Z,5.70
2023-04-26T05:38:54.839Z,5.75
2023-04-26T05:41:21.681Z,5.82
2023-04-26T05:43:48.525Z,5.83
2023-04-26T05:46:15.426Z,5.90
2023-04-26T05:48:42.282Z,5.90
2023-04-26T05:51:09.117Z,5.97
2023-04-26T05:53:36.218Z,6.01
2023-04-26T05:56:03.125Z,6.04
2023-04-26T05:58:29.936Z,6.10
2023-04-26T06:00:56.981Z,6.15
2023-04-26T06:03:24.831Z,6.09
2023-04-26T06:05:51.946Z,6.24
2023-04-26T06:08:19.071Z,6.28
2023-04-26T06:10:47.245Z,6.22
2023-04-26T06:13:14.209Z,6.31
2023-04-26T06:15:41.250Z,6.28
2023-04-26T06:18:08.867Z,6.35
2023-04-26T06:20:36.332Z,6.46
2023-04-26T06:23:03.178Z,6.63
2023-04-26T06:25:30.075Z,6.69
2023-04-26T06:27:58.845Z,6.71
2023-04-26T06:30:25.759Z,6.79
2023-04-26T06:32:52.928Z,6.87
2023-04-26T06:35:19.804Z,6.96
2023-04-26T06:37:47.027Z,6.90
2023-04-26T06:40:16.060Z,6.76
2023-04-26T06:42:43.184Z,6.90
2023-04-26T06:45:11.674Z,6.91
2023-04-26T06:47:38.890Z,7.03
2023-04-26T06:50:06.583Z,7.09
2023-04-26T06:52:33.502Z,7.22
2023-04-26T06:55:04.492Z,7.15
2023-04-26T06:57:31.385Z,7.02
2023-04-26T06:59:58.423Z,6.95
2023-04-26T07:02:25.714Z,6.97
2023-04-26T07:04:53.115Z,7.17
2023-04-26T07:07:20.402Z,7.21
2023-04-26T07:09:47.405Z,7.28
2023-04-26T07:12:14.547Z,7.28
2023-04-26T07:14:43.424Z,7.51
2023-04-26T07:17:11.291Z,7.71
2023-04-26T07:19:38.963Z,7.73
2023-04-26T07:22:05.902Z,7.83
2023-04-26T07:24:32.758Z,7.99
2023-04-26T07:26:59.707Z,8.13
2023-04-26T07:29:26.599Z,8.21
2023-04-26T07:31:53.715Z,8.23
2023-04-26T07:34:20.536Z,8.32
2023-04-26T07:36:48.022Z,8.42
2023-04-26T07:39:15.635Z,8.40
2023-04-26T07:41:44.087Z,8.54
2023-04-26T07:44:11.638Z,8.74
2023-04-26T07:46:38.713Z,8.79
2023-04-26T07:49:05.671Z,8.90
2023-04-26T07:51:32.641Z,8.96
2023-04-26T07:53:59.682Z,8.93
2023-04-26T07:56:26.487Z,9.01
2023-04-26T07:58:53.515Z,9.13
2023-04-26T08:01:20.467Z,9.28
2023-04-26T08:03:49.317Z,9.29
2023-04-26T08:06:16.997Z,9.32
2023-04-26T08:08:49.388Z,9.25
2023-04-26T08:11:17.048Z,9.15
2023-04-26T08:13:46.889Z,9.02
2023-04-26T08:16:13.838Z,9.11
2023-04-26T08:18:40.749Z,8.87
2023-04-26T08:21:07.940Z,9.11
2023-04-26T08:23:36.661Z,8.99
2023-04-26T08:26:03.969Z,8.99
2023-04-26T08:28:31.312Z,9.12
2023-04-26T08:30:58.444Z,9.29
2023-04-26T08:33:26.348Z,9.43
2023-04-26T08:35:53.316Z,9.60
2023-04-26T08:38:22.885Z,9.60
2023-04-26T08:40:51.769Z,9.71
2023-04-26T08:43:18.675Z,9.91
2023-04-26T08:45:48.869Z,9.95
2023-04-26T08:48:18.425Z,9.87
2023-04-26T08:50:46.846Z,9.79
2023-04-26T08:53:20.502Z,9.92
2023-04-26T08:55:51.069Z,9.76
2023-04-26T08:58:19.241Z,9.78
2023-04-26T09:00:46.729Z,9.95
2023-04-26T09:03:14.280Z,10.06
2023-04-26T09:05:45.359Z,10.06
2023-04-26T09:08:18.491Z,10.20
2023-04-26T09:10:45.677Z,10.40
2023-04-26T09:13:13.229Z,10.54
2023-04-26T09:15:40.431Z,10.63
2023-04-26T09:18:21.519Z,10.64
2023-04-26T09:21:07.218Z,10.59
2023-04-26T09:23:34.725Z,10.69
2023-04-26T09:26:21.802Z,10.65
2023-04-26T09:29:12.148Z,10.68
2023-04-26T09:31:49.722Z,10.59
2023-04-26T09:34:16.959Z,10.60
2023-04-26T09:36:57.300Z,10.73
2023-04-26T09:39:40.601Z,10.84
2023-04-26T09:42:08.153Z,10.86
2023-04-26T09:44:36.235Z,10.91
2023-04-26T09:47:10.870Z,11.00
2023-04-26T09:49:52.042Z,11.04
2023-04-26T09:52:20.153Z,11.07
2023-04-26T09:54:52.585Z,11.09
2023-04-26T09:57:22.476Z,11.04
2023-04-26T09:59:55.566Z,11.19
2023-04-26T10:02:26.950Z,11.35
2023-04-26T10:04:57.024Z,11.31
2023-04-26T10:07:26.065Z,11.38
2023-04-26T10:09:53.963Z,11.55
2023-04-26T10:12:21.156Z,11.44
2023-04-26T10:14:48.853Z,11.61
2023-04-26T10:17:16.115Z,11.44
2023-04-26T10:19:44.419Z,11.32
2023-04-26T10:22:18.135Z,11.53
2023-04-26T10:24:45.447Z,11.52
2023-04-26T10:27:12.364Z,11.52
2023-04-26T10:30:04.503Z,11.15
2023-04-26T10:32:32.238Z,11.12
2023-04-26T10:35:14.734Z,11.38
2023-04-26T10:38:00.109Z,11.53
2023-04-26T10:40:34.152Z,11.49
2023-04-26T10:43:30.485Z,11.61
2023-04-26T10:45:58.238Z,11.55
2023-04-26T10:48:27.900Z,11.39
2023-04-26T10:51:08.763Z,11.41
2023-04-26T10:53:56.489Z,11.62
2023-04-26T10:56:25.823Z,11.63
2023-04-26T10:59:33.392Z,11.81
2023-04-26T11:02:01.478Z,12.01
2023-04-26T11:04:52.394Z,11.78
2023-04-26T11:07:37.977Z,11.77
2023-04-26T11:10:10.659Z,11.85
2023-04-26T11:12:37.552Z,11.95
2023-04-26T11:15:05.203Z,12.09
2023-04-26T11:17:38.281Z,12.08
2023-04-26T11:20:10.461Z,12.16
2023-04-26T11:22:42.043Z,12.30
2023-04-26T11:25:09.700Z,12.51
2023-04-26T11:27:36.765Z,12.81
2023-04-26T11:30:08.428Z,13.18
2023-04-26T11:32:35.304Z,13.43
2023-04-26T11:35:02.211Z,13.52
2023-04-26T11:37:29.074Z,13.80
2023-04-26T11:39:57.756Z,14.02
2023-04-26T11:42:27.266Z,13.99
2023-04-26T11:44:54.569Z,13.67
2023-04-26T11:47:23.001Z,12.81
2023-04-26T11:49:49.950Z,12.86
2023-04-26T11:52:16.851Z,12.90
2023-04-26T11:54:44.626Z,12.69
2023-04-26T11:57:18.493Z,12.71
2023-04-26T11:59:46.169Z,12.80
2023-04-26T12:02:13.409Z,13.00
2023-04-26T12:04:41.629Z,13.08
2023-04-26T12:07:08.812Z,12.96
2023-04-26T12:09:36.817Z,13.14
2023-04-26T12:12:08.484Z,13.10
2023-04-26T12:14:38.148Z,12.98
2023-04-26T12:17:06.677Z,12.94
2023-04-26T12:19:37.255Z,12.88
2023-04-26T12:22:07.959Z,13.08
2023-04-26T12:24:38.739Z,13.00
2023-04-26T12:27:07.355Z,12.78
2023-04-26T12:29:34.996Z,12.61
2023-04-26T12:32:02.946Z,12.99
2023-04-26T12:34:30.003Z,13.19
2023-04-26T12:36:56.887Z,13.24
2023-04-26T12:39:23.766Z,13.82
2023-04-26T12:41:50.642Z,14.26
2023-04-26T12:44:19.067Z,14.35
2023-04-26T12:46:48.382Z,14.70
2023-04-26T12:49:15.321Z,15.00
2023-04-26T12:51:42.154Z,15.22
2023-04-26T12:54:09.428Z,15.46
2023-04-26T12:56:40.944Z,15.75
2023-04-26T12:59:07.986Z,16.02
2023-04-26T13:01:34.890Z,16.25
2023-04-26T13:04:04.996Z,16.22
2023-04-26T13:06:32.615Z,16.23
2023-04-26T13:08:59.663Z,16.11
2023-04-26T13:11:26.703Z,15.81
2023-04-26T13:13:53.588Z,15.87
2023-04-26T13:16:20.549Z,16.03
2023-04-26T13:18:47.451Z,16.24
2023-04-26T13:21:14.418Z,16.22
2023-04-26T13:23:42.410Z,15.66
2023-04-26T13:26:09.248Z,16.03
2023-04-26T13:28:36.949Z,16.16
2023-04-26T13:31:03.886Z,16.17
2023-04-26T13:33:30.782Z,15.93
2023-04-26T13:35:57.638Z,16.02
2023-04-26T13:38:25.342Z,16.04
2023-04-26T13:40:53.998Z,16.22
2023-04-26T13:43:20.887Z,16.17
2023-04-26T13:45:47.775Z,16.13
2023-04-26T13:48:15.021Z,16.04
2023-04-26T13:50:42.199Z,16.08
2023-04-26T13:53:09.206Z,15.72
2023-04-26T13:55:36.042Z,15.56
2023-04-26T13:58:02.937Z,15.75
2023-04-26T14:00:29.761Z,15.74
2023-04-26T14:02:57.052Z,15.91
2023-04-26T14:05:24.122Z,16.01
2023-04-26T14:07:52.419Z,16.09
2023-04-26T14:10:21.433Z,16.39
2023-04-26T14:12:48.308Z,16.09
2023-04-26T14:15:15.378Z,16.08
2023-04-26T14:17:42.345Z,16.12
2023-04-26T14:20:10.793Z,15.83
2023-04-26T14:22:37.664Z,15.50
2023-04-26T14:25:05.139Z,15.85
2023-04-26T14:27:32.030Z,16.10
2023-04-26T14:29:58.937Z,16.35
2023-04-26T14:32:26.135Z,16.47
2023-04-26T14:34:52.994Z,16.73
2023-04-26T14:37:23.059Z,16.94
2023-04-26T14:39:50.935Z,17.17
2023-04-26T14:42:17.856Z,17.03
2023-04-26T14:44:46.631Z,16.84
2023-04-26T14:47:13.679Z,16.76
2023-04-26T14:49:40.631Z,16.71
2023-04-26T14:52:13.401Z,16.43
2023-04-26T14:54:40.748Z,16.47
2023-04-26T14:57:08.022Z,16.56
2023-04-26T14:59:35.252Z,16.47
2023-04-26T15:02:02.330Z,16.65
2023-04-26T15:04:29.481Z,16.77
2023-04-26T15:06:57.460Z,16.72
2023-04-26T15:09:24.303Z,16.83
2023-04-26T15:11:51.131Z,17.04
2023-04-26T15:14:17.957Z,17.26
2023-04-26T15:16:45.350Z,17.57
2023-04-26T15:19:12.236Z,17.70
2023-04-26T15:21:39.045Z,17.58
2023-04-26T15:24:07.789Z,17.55
2023-04-26T15:26:34.782Z,17.42
2023-04-26T15:29:02.237Z,17.33
2023-04-26T15:31:29.121Z,17.23
2023-04-26T15:33:58.762Z,17.12
2023-04-26T15:36:25.624Z,17.06
2023-04-26T15:38:52.948Z,16.76
2023-04-26T15:41:20.047Z,16.66
2023-04-26T15:43:46.887Z,16.33
2023-04-26T15:46:15.178Z,16.41
2023-04-26T15:48:42.103Z,16.37
2023-04-26T15:51:08.963Z,16.29
2023-04-26T15:53:39.244Z,16.29
2023-04-26T15:56:18.842Z,16.19
2023-04-26T15:58:47.011Z,16.13
2023-04-26T16:01:14.762Z,16.05
2023-04-26T16:03:44.730Z,15.98
2023-04-26T16:06:13.534Z,15.87
2023-04-26T16:08:40.927Z,15.97
2023-04-26T16:11:08.076Z,15.89
2023-04-26T16:13:34.920Z,15.90
2023-04-26T16:16:01.797Z,15.70
2023-04-26T16:18:28.620Z,15.46
2023-04-26T16:21:09.731Z,15.23
2023-04-26T16:23:37.316Z,15.07
2023-04-26T16:26:04.780Z,15.14
2023-04-26T16:28:31.961Z,15.04
2023-04-26T16:30:58.861Z,14.97
2023-04-26T16:33:25.908Z,14.95
2023-04-26T16:35:55.156Z,14.97
2023-04-26T16:38:23.153Z,14.78
2023-04-26T16:41:01.717Z,14.58
2023-04-26T16:43:30.568Z,14.44
2023-04-26T16:46:06.014Z,14.46
2023-04-26T16:48:36.754Z,14.47
2023-04-26T16:51:07.457Z,14.36
2023-04-26T16:53:36.059Z,14.27
2023-04-26T16:56:03.237Z,14.33
2023-04-26T16:58:30.221Z,14.39
2023-04-26T17:00:57.129Z,14.26
2023-04-26T17:03:24.767Z,14.16
2023-04-26T17:05:52.028Z,14.13
2023-04-26T17:08:19.783Z,14.12
2023-04-26T17:10:47.260Z,14.06
2023-04-26T17:13:14.893Z,14.04
2023-04-26T17:15:42.592Z,14.00
2023-04-26T17:18:09.899Z,13.93
2023-04-26T17:20:37.425Z,13.80
2023-04-26T17:23:04.617Z,13.73
2023-04-26T17:25:31.802Z,13.66
2023-04-26T17:27:59.060Z,13.70
2023-04-26T17:30:26.112Z,13.70
2023-04-26T17:32:53.018Z,13.57
2023-04-26T17:35:19.966Z,13.48
2023-04-26T17:37:50.086Z,13.37
2023-04-26T17:40:18.656Z,13.39
2023-04-26T17:42:46.504Z,13.39
2023-04-26T17:45:14.375Z,13.45
2023-04-26T17:47:42.604Z,13.38
2023-04-26T17:50:10.136Z,13.40
2023-04-26T17:52:37.687Z,13.31
2023-04-26T17:55:06.570Z,13.27
2023-04-26T17:57:33.406Z,13.21
2023-04-26T18:00:00.268Z,13.11
2023-04-26T18:02:27.228Z,12.90
2023-04-26T18:04:55.219Z,12.68
2023-04-26T18:07:22.305Z,12.58
2023-04-26T18:09:49.209Z,12.68
2023-04-26T18:12:16.091Z,12.65
2023-04-26T18:14:45.217Z,12.58
2023-04-26T18:17:13.528Z,12.35
2023-04-26T18:19:41.478Z,12.35
2023-04-26T18:22:09.178Z,12.42
2023-04-26T18:24:36.057Z,12.38
2023-04-26T18:27:03.281Z,12.33
2023-04-26T18:29:30.826Z,12.23
2023-04-26T18:31:57.820Z,12.17
2023-04-26T18:34:24.800Z,12.13
2023-04-26T18:36:51.627Z,12.09
2023-04-26T18:39:18.516Z,11.93
2023-04-26T18:41:45.598Z,11.85
2023-04-26T18:44:15.819Z,11.85
2023-04-26T18:46:43.264Z,11.83
2023-04-26T18:49:11.291Z,11.70
2023-04-26T18:51:38.201Z,11.61
2023-04-26T18:54:05.285Z,11.54
2023-04-26T18:56:32.200Z,11.51
2023-04-26T18:58:59.171Z,11.38
2023-04-26T19:01:26.089Z,11.15
2023-04-26T19:03:53.250Z,11.12
2023-04-26T19:06:20.326Z,10.98
2023-04-26T19:08:47.377Z,10.88
2023-04-26T19:11:14.359Z,10.82
2023-04-26T19:13:41.688Z,10.73
2023-04-26T19:16:09.652Z,10.69
2023-04-26T19:18:37.429Z,10.50
2023-04-26T19:21:08.606Z,10.38
2023-04-26T19:23:35.998Z,10.29
2023-04-26T19:26:08.835Z,10.18
2023-04-26T19:28:37.697Z,10.13
2023-04-26T19:31:04.860Z,9.93
2023-04-26T19:33:32.624Z,9.73
2023-04-26T19:35:59.558Z,9.74
2023-04-26T19:38:26.495Z,9.66
2023-04-26T19:40:53.513Z,9.61
2023-04-26T19:43:20.832Z,9.50
2023-04-26T19:45:48.038Z,9.53
2023-04-26T19:48:15.057Z,9.42
2023-04-26T19:50:44.026Z,9.34
2023-04-26T19:53:13.228Z,9.31
2023-04-26T19:55:41.643Z,9.24
2023-04-26T19:58:08.968Z,9.22
2023-04-26T20:00:36.244Z,9.18
2023-04-26T20:03:03.438Z,9.15
2023-04-26T20:05:30.774Z,9.06
2023-04-26T20:07:57.749Z,9.14
2023-04-26T20:10:25.063Z,9.03
2023-04-26T20:12:53.378Z,8.89
2023-04-26T20:15:20.348Z,8.83
2023-04-26T20:17:47.625Z,8.84
2023-04-26T20:20:15.158Z,8.88
2023-04-26T20:22:42.114Z,8.99
2023-04-26T20:25:09.565Z,9.04
2023-04-26T20:27:36.837Z,9.05
2023-04-26T20:30:04.200Z,8.91
2023-04-26T20:32:31.116Z,8.88
2023-04-26T20:34:57.983Z,8.75
2023-04-26T20:37:24.847Z,8.76
2023-04-26T20:39:51.757Z,8.62
2023-04-26T20:42:18.694Z,8.56
2023-04-26T20:44:45.817Z,8.40
2023-04-26T20:47:13.225Z,8.55
2023-04-26T20:49:40.075Z,8.51
2023-04-26T20:52:06.986Z,8.47
2023-04-26T20:54:34.178Z,8.50
2023-04-26T20:57:01.810Z,8.44
2023-04-26T20:59:28.744Z,8.41
2023-04-26T21:01:56.026Z,8.33
2023-04-26T21:04:23.085Z,8.35
2023-04-26T21:06:50.115Z,8.36
2023-04-26T21:09:17.223Z,8.30
2023-04-26T21:11:44.321Z,8.34
2023-04-26T21:14:11.189Z,8.35
2023-04-26T21:16:38.090Z,8.22
2023-04-26T21:19:05.594Z,8.24
2023-04-26T21:21:32.783Z,8.24
2023-04-26T21:23:59.955Z,8.11
2023-04-26T21:26:26.820Z,8.22
2023-04-26T21:28:53.863Z,8.10
2023-04-26T21:31:20.788Z,8.05
2023-04-26T21:33:47.644Z,8.07
2023-04-26T21:36:14.484Z,8.10
2023-04-26T21:38:41.327Z,8.11
2023-04-26T21:41:08.157Z,8.09
2023-04-26T21:43:35.024Z,8.12
2023-04-26T21:46:01.988Z,8.23
2023-04-26T21:48:28.863Z,8.22
2023-04-26T21:50:55.837Z,8.21
2023-04-26T21:53:22.678Z,8.12
2023-04-26T21:55:54.080Z,8.09
2023-04-26T21:58:21.874Z,8.07
2023-04-26T22:00:49.972Z,8.10
2023-04-26T22:03:17.516Z,8.04
2023-04-26T22:05:44.571Z,8.00
2023-04-26T22:08:11.493Z,7.96
2023-04-26T22:10:38.336Z,7.84
2023-04-26T22:13:05.595Z,7.82
2023-04-26T22:15:32.638Z,7.81
2023-04-26T22:17:59.526Z,7.89
2023-04-26T22:20:26.829Z,7.87
2023-04-26T22:22:54.281Z,7.87
2023-04-26T22:25:21.558Z,7.96
2023-04-26T22:27:48.822Z,7.95
2023-04-26T22:30:25.524Z,8.03
2023-04-26T22:32:55.750Z,8.00
2023-04-26T22:35:24.769Z,7.91
2023-04-26T22:37:51.816Z,7.84
2023-04-26T22:40:18.831Z,7.83
2023-04-26T22:42:45.691Z,7.83
2023-04-26T22:45:13.623Z,7.83
2023-04-26T22:47:41.103Z,7.81
2023-04-26T22:50:08.935Z,7.82
2023-04-26T22:52:36.519Z,7.60
2023-04-26T22:55:03.422Z,7.68
2023-04-26T22:57:31.305Z,7.61
2023-04-26T22:59:58.718Z,7.71
2023-04-26T23:02:25.629Z,7.73
2023-04-26T23:04:52.610Z,7.68
2023-04-26T23:07:19.475Z,7.77
2023-04-26T23:09:46.382Z,7.84
2023-04-26T23:12:19.469Z,7.81
2023-04-26T23:14:47.955Z,7.75
2023-04-26T23:17:15.056Z,7.84
2023-04-26T23:19:42.519Z,7.67
2023-04-26T23:22:09.417Z,7.69
2023-04-26T23:24:36.632Z,7.71
2023-04-26T23:27:03.965Z,7.55
2023-04-26T23:29:31.158Z,7.55
2023-04-26T23:31:58.247Z,7.59
2023-04-26T23:34:25.255Z,7.54
2023-04-26T23:36:52.178Z,7.60
2023-04-26T23:39:19.169Z,7.54
2023-04-26T23:41:46.169Z,7.45
2023-04-26T23:44:13.037Z,7.54
2023-04-26T23:46:39.953Z,7.47
2023-04-26T23:49:06.912Z,7.47
2023-04-26T23:51:33.800Z,7.55
2023-04-26T23:54:00.970Z,7.44
2023-04-26T23:56:27.829Z,7.42
2023-04-26T23:58:55.024Z,7.46
